sensor_id;sensor_type;location;lat;lon;timestamp;pressure;altitude;pressure_sealevel;temperature;humidity
9764;BME280;4921;43.214;27.936;2024-02-23T00:01:39;101036.06;;;7.76;70.14
9764;BME280;4921;43.214;27.936;2024-02-23T00:04:05;101039.75;;;7.88;69.66
9764;BME280;4921;43.214;27.936;2024-02-23T00:06:34;101030.72;;;7.71;69.69
9764;BME280;4921;43.214;27.936;2024-02-23T00:08:59;101011.22;;;7.72;70.84
9764;BME280;4921;43.214;27.936;2024-02-23T00:11:25;101029.47;;;7.77;70.87
9764;BME280;4921;43.214;27.936;2024-02-23T00:13:50;101018.81;;;7.75;70.92
9764;BME280;4921;43.214;27.936;2024-02-23T00:16:16;101007.84;;;7.75;71.11
9764;BME280;4921;43.214;27.936;2024-02-23T00:18:41;100998.16;;;7.69;70.39
9764;BME280;4921;43.214;27.936;2024-02-23T00:21:07;101005.75;;;7.72;71.33
9764;BME280;4921;43.214;27.936;2024-02-23T00:23:33;100993.19;;;7.54;70.73
9764;BME280;4921;43.214;27.936;2024-02-23T00:25:59;100991.38;;;7.58;71.31
9764;BME280;4921;43.214;27.936;2024-02-23T00:28:25;101015.75;;;7.68;70.60
9764;BME280;4921;43.214;27.936;2024-02-23T00:30:50;100999.81;;;7.70;71.23
9764;BME280;4921;43.214;27.936;2024-02-23T00:33:16;101010.44;;;7.63;70.38
9764;BME280;4921;43.214;27.936;2024-02-23T00:35:42;101006.06;;;7.54;71.14
9764;BME280;4921;43.214;27.936;2024-02-23T00:38:07;101004.97;;;7.63;71.56
9764;BME280;4921;43.214;27.936;2024-02-23T00:40:33;100992.69;;;7.69;70.91
9764;BME280;4921;43.214;27.936;2024-02-23T00:42:59;101002.38;;;7.67;70.66
9764;BME280;4921;43.214;27.936;2024-02-23T00:45:30;100994.94;;;7.67;70.87
9764;BME280;4921;43.214;27.936;2024-02-23T00:47:55;100966.72;;;7.41;69.92
9764;BME280;4921;43.214;27.936;2024-02-23T00:50:22;100991.88;;;7.60;72.09
9764;BME280;4921;43.214;27.936;2024-02-23T00:52:49;100990.94;;;7.56;71.06
9764;BME280;4921;43.214;27.936;2024-02-23T00:55:14;100972.69;;;7.43;70.18
9764;BME280;4921;43.214;27.936;2024-02-23T00:57:40;100979.78;;;7.44;71.20
9764;BME280;4921;43.214;27.936;2024-02-23T01:00:06;100979.44;;;7.37;70.55
9764;BME280;4921;43.214;27.936;2024-02-23T01:02:31;100971.25;;;7.46;69.85
9764;BME280;4921;43.214;27.936;2024-02-23T01:04:58;100963.66;;;7.43;69.70
9764;BME280;4921;43.214;27.936;2024-02-23T01:07:24;100973.97;;;7.37;71.75
9764;BME280;4921;43.214;27.936;2024-02-23T01:09:50;100965.13;;;7.32;72.07
9764;BME280;4921;43.214;27.936;2024-02-23T01:12:16;100964.91;;;7.11;72.06
9764;BME280;4921;43.214;27.936;2024-02-23T01:14:41;100962.34;;;7.15;71.01
9764;BME280;4921;43.214;27.936;2024-02-23T01:17:07;100962.66;;;7.13;72.11
9764;BME280;4921;43.214;27.936;2024-02-23T01:19:33;100970.41;;;7.20;71.88
9764;BME280;4921;43.214;27.936;2024-02-23T01:21:58;100968.66;;;7.24;70.57
9764;BME280;4921;43.214;27.936;2024-02-23T01:24:27;100960.25;;;7.20;70.72
9764;BME280;4921;43.214;27.936;2024-02-23T01:26:54;100949.94;;;7.00;73.41
9764;BME280;4921;43.214;27.936;2024-02-23T01:29:21;100959.13;;;7.13;72.88
9764;BME280;4921;43.214;27.936;2024-02-23T01:31:48;100942.06;;;7.07;72.17
9764;BME280;4921;43.214;27.936;2024-02-23T01:34:14;100948.31;;;7.08;72.18
9764;BME280;4921;43.214;27.936;2024-02-23T01:36:39;100933.19;;;7.19;72.08
9764;BME280;4921;43.214;27.936;2024-02-23T01:39:05;100933.53;;;7.17;72.63
9764;BME280;4921;43.214;27.936;2024-02-23T01:41:30;100921.09;;;7.11;72.29
9764;BME280;4921;43.214;27.936;2024-02-23T01:43:57;100922.56;;;7.26;72.91
9764;BME280;4921;43.214;27.936;2024-02-23T01:46:23;100920.66;;;7.26;73.42
9764;BME280;4921;43.214;27.936;2024-02-23T01:48:49;100917.59;;;7.19;73.35
9764;BME280;4921;43.214;27.936;2024-02-23T01:51:14;100916.94;;;7.22;72.70
9764;BME280;4921;43.214;27.936;2024-02-23T01:53:40;100915.66;;;7.28;72.30
9764;BME280;4921;43.214;27.936;2024-02-23T01:56:06;100903.72;;;7.16;73.08
9764;BME280;4921;43.214;27.936;2024-02-23T01:58:33;100921.59;;;7.22;72.54
9764;BME280;4921;43.214;27.936;2024-02-23T02:01:00;100915.66;;;7.28;71.65
9764;BME280;4921;43.214;27.936;2024-02-23T02:03:26;100906.63;;;7.11;73.10
9764;BME280;4921;43.214;27.936;2024-02-23T02:05:52;100909.69;;;7.26;72.00
9764;BME280;4921;43.214;27.936;2024-02-23T02:08:19;100908.72;;;7.22;72.31
9764;BME280;4921;43.214;27.936;2024-02-23T02:10:45;100920.16;;;7.24;71.85
9764;BME280;4921;43.214;27.936;2024-02-23T02:13:12;100915.00;;;7.31;72.79
9764;BME280;4921;43.214;27.936;2024-02-23T02:15:38;100922.09;;;7.41;72.17
9764;BME280;4921;43.214;27.936;2024-02-23T02:18:04;100918.41;;;7.28;72.75
9764;BME280;4921;43.214;27.936;2024-02-23T02:20:32;100917.59;;;7.36;71.50
9764;BME280;4921;43.214;27.936;2024-02-23T02:22:59;100922.25;;;7.36;73.04
9764;BME280;4921;43.214;27.936;2024-02-23T02:25:24;100922.41;;;7.39;71.90
9764;BME280;4921;43.214;27.936;2024-02-23T02:27:50;100926.13;;;7.43;73.13
9764;BME280;4921;43.214;27.936;2024-02-23T02:30:15;100925.16;;;7.48;72.21
9764;BME280;4921;43.214;27.936;2024-02-23T02:32:41;100919.69;;;7.39;72.46
9764;BME280;4921;43.214;27.936;2024-02-23T02:35:07;100929.03;;;7.47;72.88
9764;BME280;4921;43.214;27.936;2024-02-23T02:37:32;100915.81;;;7.40;73.13
9764;BME280;4921;43.214;27.936;2024-02-23T02:39:58;100920.16;;;7.33;74.29
9764;BME280;4921;43.214;27.936;2024-02-23T02:42:24;100918.56;;;7.40;72.20
9764;BME280;4921;43.214;27.936;2024-02-23T02:44:49;100916.94;;;7.48;73.46
9764;BME280;4921;43.214;27.936;2024-02-23T02:47:15;100913.06;;;7.49;73.01
9764;BME280;4921;43.214;27.936;2024-02-23T02:49:40;100906.63;;;7.53;74.02
9764;BME280;4921;43.214;27.936;2024-02-23T02:52:06;100911.28;;;7.44;73.61
9764;BME280;4921;43.214;27.936;2024-02-23T02:54:33;100907.59;;;7.57;72.88
9764;BME280;4921;43.214;27.936;2024-02-23T02:56:59;100889.53;;;7.39;74.11
9764;BME280;4921;43.214;27.936;2024-02-23T02:59:25;100885.53;;;7.45;73.08
9764;BME280;4921;43.214;27.936;2024-02-23T03:01:50;100904.19;;;7.60;72.61
9764;BME280;4921;43.214;27.936;2024-02-23T03:04:16;100898.72;;;7.60;74.03
9764;BME280;4921;43.214;27.936;2024-02-23T03:06:41;100900.19;;;7.58;73.28
9764;BME280;4921;43.214;27.936;2024-02-23T03:09:07;100884.88;;;7.48;73.34
9764;BME280;4921;43.214;27.936;2024-02-23T03:11:32;100914.66;;;7.75;72.56
9764;BME280;4921;43.214;27.936;2024-02-23T03:13:58;100908.84;;;7.77;72.88
9764;BME280;4921;43.214;27.936;2024-02-23T03:16:24;100918.06;;;7.64;73.35
9764;BME280;4921;43.214;27.936;2024-02-23T03:18:52;100916.91;;;7.73;73.80
9764;BME280;4921;43.214;27.936;2024-02-23T03:21:19;100915.13;;;7.69;73.35
9764;BME280;4921;43.214;27.936;2024-02-23T03:23:45;100901.75;;;7.67;72.80
9764;BME280;4921;43.214;27.936;2024-02-23T03:26:10;100911.47;;;7.65;73.50
9764;BME280;4921;43.214;27.936;2024-02-23T03:28:36;100911.13;;;7.66;73.88
9764;BME280;4921;43.214;27.936;2024-02-23T03:31:01;100898.53;;;7.65;73.67
9764;BME280;4921;43.214;27.936;2024-02-23T03:33:27;100899.50;;;7.69;74.23
9764;BME280;4921;43.214;27.936;2024-02-23T03:35:53;100911.59;;;7.77;73.84
9764;BME280;4921;43.214;27.936;2024-02-23T03:38:18;100895.81;;;7.74;73.25
9764;BME280;4921;43.214;27.936;2024-02-23T03:40:44;100900.31;;;7.70;74.98
9764;BME280;4921;43.214;27.936;2024-02-23T03:43:09;100904.97;;;7.78;73.28
9764;BME280;4921;43.214;27.936;2024-02-23T03:45:35;100887.78;;;7.43;78.49
9764;BME280;4921;43.214;27.936;2024-02-23T03:48:03;100896.75;;;7.69;76.42
9764;BME280;4921;43.214;27.936;2024-02-23T03:50:30;100896.75;;;7.69;76.32
9764;BME280;4921;43.214;27.936;2024-02-23T03:52:55;100894.81;;;7.87;75.76
9764;BME280;4921;43.214;27.936;2024-02-23T03:55:21;100898.03;;;7.80;77.61
9764;BME280;4921;43.214;27.936;2024-02-23T03:57:47;100893.19;;;7.86;75.66
9764;BME280;4921;43.214;27.936;2024-02-23T04:00:13;100890.63;;;7.81;76.73
9764;BME280;4921;43.214;27.936;2024-02-23T04:02:39;100875.16;;;7.76;77.84
9764;BME280;4921;43.214;27.936;2024-02-23T04:05:05;100888.06;;;7.84;75.81
9764;BME280;4921;43.214;27.936;2024-02-23T04:07:31;100892.34;;;7.94;76.19
9764;BME280;4921;43.214;27.936;2024-02-23T04:09:56;100883.97;;;7.91;76.44
9764;BME280;4921;43.214;27.936;2024-02-23T04:12:22;100884.91;;;8.03;75.12
9764;BME280;4921;43.214;27.936;2024-02-23T04:14:47;100895.41;;;8.01;75.01
9764;BME280;4921;43.214;27.936;2024-02-23T04:17:13;100878.50;;;7.91;75.80
9764;BME280;4921;43.214;27.936;2024-02-23T04:19:40;100882.38;;;7.90;76.21
9764;BME280;4921;43.214;27.936;2024-02-23T04:22:07;100876.75;;;7.86;77.08
9764;BME280;4921;43.214;27.936;2024-02-23T04:24:38;100872.34;;;7.94;76.02
9764;BME280;4921;43.214;27.936;2024-02-23T04:27:05;100880.25;;;8.04;75.18
9764;BME280;4921;43.214;27.936;2024-02-23T04:29:31;100876.38;;;8.05;75.64
9764;BME280;4921;43.214;27.936;2024-02-23T04:31:58;100865.72;;;8.03;74.13
9764;BME280;4921;43.214;27.936;2024-02-23T04:34:23;100873.84;;;7.91;76.24
9764;BME280;4921;43.214;27.936;2024-02-23T04:36:49;100882.69;;;7.97;74.97
9764;BME280;4921;43.214;27.936;2024-02-23T04:39:14;100878.81;;;7.98;75.57
9764;BME280;4921;43.214;27.936;2024-02-23T04:41:40;100876.72;;;7.95;74.96
9764;BME280;4921;43.214;27.936;2024-02-23T04:44:05;100882.38;;;7.98;76.34
9764;BME280;4921;43.214;27.936;2024-02-23T04:46:31;100889.41;;;8.08;75.30
9764;BME280;4921;43.214;27.936;2024-02-23T04:48:59;100889.25;;;8.04;73.87
9764;BME280;4921;43.214;27.936;2024-02-23T04:51:25;100879.47;;;7.95;75.07
9764;BME280;4921;43.214;27.936;2024-02-23T04:53:50;100883.84;;;7.87;74.37
9764;BME280;4921;43.214;27.936;2024-02-23T04:56:16;100878.34;;;7.87;75.78
9764;BME280;4921;43.214;27.936;2024-02-23T04:58:42;100882.72;;;7.79;75.81
9764;BME280;4921;43.214;27.936;2024-02-23T05:01:08;100892.34;;;7.94;75.50
9764;BME280;4921;43.214;27.936;2024-02-23T05:03:34;100898.66;;;7.95;74.94
9764;BME280;4921;43.214;27.936;2024-02-23T05:05:59;100900.44;;;7.91;75.72
9764;BME280;4921;43.214;27.936;2024-02-23T05:08:25;100900.75;;;7.98;75.34
9764;BME280;4921;43.214;27.936;2024-02-23T05:10:52;100898.00;;;7.98;74.75
9764;BME280;4921;43.214;27.936;2024-02-23T05:13:18;100896.41;;;7.79;75.39
9764;BME280;4921;43.214;27.936;2024-02-23T05:15:44;100899.97;;;7.80;74.88
9764;BME280;4921;43.214;27.936;2024-02-23T05:18:10;100903.84;;;7.88;74.72
9764;BME280;4921;43.214;27.936;2024-02-23T05:20:36;100888.50;;;7.86;74.62
9764;BME280;4921;43.214;27.936;2024-02-23T05:23:01;100900.09;;;7.92;75.85
9764;BME280;4921;43.214;27.936;2024-02-23T05:25:27;100907.22;;;7.93;75.64
9764;BME280;4921;43.214;27.936;2024-02-23T05:27:53;100901.28;;;7.82;75.38
9764;BME280;4921;43.214;27.936;2024-02-23T05:30:19;100898.69;;;7.86;74.90
9764;BME280;4921;43.214;27.936;2024-02-23T05:32:44;100909.63;;;7.95;75.81
9764;BME280;4921;43.214;27.936;2024-02-23T05:35:10;100887.38;;;7.88;74.33
9764;BME280;4921;43.214;27.936;2024-02-23T05:37:36;100898.78;;;8.07;75.91
9764;BME280;4921;43.214;27.936;2024-02-23T05:40:03;100916.84;;;8.08;75.00
9764;BME280;4921;43.214;27.936;2024-02-23T05:42:36;100918.75;;;8.16;75.82
9764;BME280;4921;43.214;27.936;2024-02-23T05:45:02;100916.31;;;8.23;75.24
9764;BME280;4921;43.214;27.936;2024-02-23T05:47:30;100896.13;;;8.36;75.14
9764;BME280;4921;43.214;27.936;2024-02-23T05:49:56;100911.56;;;8.49;74.68
9764;BME280;4921;43.214;27.936;2024-02-23T05:52:21;100911.53;;;8.57;74.76
9764;BME280;4921;43.214;27.936;2024-02-23T05:54:47;100915.50;;;8.68;75.30
9764;BME280;4921;43.214;27.936;2024-02-23T05:57:13;100905.31;;;8.69;74.79
9764;BME280;4921;43.214;27.936;2024-02-23T05:59:38;100912.47;;;8.90;74.33
9764;BME280;4921;43.214;27.936;2024-02-23T06:02:04;100921.44;;;9.00;73.58
9764;BME280;4921;43.214;27.936;2024-02-23T06:04:29;100897.34;;;9.05;74.00
9764;BME280;4921;43.214;27.936;2024-02-23T06:06:55;100907.13;;;9.15;73.52
9764;BME280;4921;43.214;27.936;2024-02-23T06:09:21;100929.97;;;9.27;72.71
9764;BME280;4921;43.214;27.936;2024-02-23T06:11:46;100923.91;;;9.42;73.72
9764;BME280;4921;43.214;27.936;2024-02-23T06:14:12;100920.72;;;9.52;72.01
9764;BME280;4921;43.214;27.936;2024-02-23T06:16:38;100924.19;;;9.82;72.52
9764;BME280;4921;43.214;27.936;2024-02-23T06:19:03;100906.88;;;10.14;71.84
9764;BME280;4921;43.214;27.936;2024-02-23T06:21:29;100920.81;;;10.54;70.00
9764;BME280;4921;43.214;27.936;2024-02-23T06:23:55;100924.81;;;10.80;68.00
9764;BME280;4921;43.214;27.936;2024-02-23T06:26:21;100923.22;;;11.03;66.88
9764;BME280;4921;43.214;27.936;2024-02-23T06:28:46;100918.41;;;11.40;66.20
9764;BME280;4921;43.214;27.936;2024-02-23T06:31:14;100909.06;;;11.57;63.86
9764;BME280;4921;43.214;27.936;2024-02-23T06:33:39;100921.34;;;11.87;63.43
9764;BME280;4921;43.214;27.936;2024-02-23T06:36:06;100920.56;;;12.30;62.30
9764;BME280;4921;43.214;27.936;2024-02-23T06:38:32;100929.19;;;12.75;61.64
9764;BME280;4921;43.214;27.936;2024-02-23T06:40:57;100930.78;;;12.91;60.29
9764;BME280;4921;43.214;27.936;2024-02-23T06:43:41;100939.28;;;13.33;59.33
9764;BME280;4921;43.214;27.936;2024-02-23T06:46:07;100927.78;;;13.31;58.21
9764;BME280;4921;43.214;27.936;2024-02-23T06:48:36;100928.28;;;13.37;57.89
9764;BME280;4921;43.214;27.936;2024-02-23T06:51:05;100928.06;;;13.26;59.04
9764;BME280;4921;43.214;27.936;2024-02-23T06:53:35;100928.09;;;12.95;59.57
9764;BME280;4921;43.214;27.936;2024-02-23T06:56:01;100926.59;;;12.82;60.36
9764;BME280;4921;43.214;27.936;2024-02-23T06:58:27;100929.28;;;12.32;62.35
9764;BME280;4921;43.214;27.936;2024-02-23T07:00:53;100920.31;;;11.91;63.26
9764;BME280;4921;43.214;27.936;2024-02-23T07:03:18;100918.00;;;11.93;63.49
9764;BME280;4921;43.214;27.936;2024-02-23T07:05:44;100919.28;;;12.11;62.88
9764;BME280;4921;43.214;27.936;2024-02-23T07:08:11;100917.50;;;12.03;64.63
9764;BME280;4921;43.214;27.936;2024-02-23T07:10:36;100912.34;;;12.02;63.17
9764;BME280;4921;43.214;27.936;2024-02-23T07:13:02;100904.34;;;12.12;63.79
9764;BME280;4921;43.214;27.936;2024-02-23T07:15:27;100915.53;;;12.04;64.26
9764;BME280;4921;43.214;27.936;2024-02-23T07:17:53;100911.88;;;12.00;64.92
9764;BME280;4921;43.214;27.936;2024-02-23T07:20:19;100920.91;;;12.12;64.84
9764;BME280;4921;43.214;27.936;2024-02-23T07:22:47;100922.09;;;11.99;65.58
9764;BME280;4921;43.214;27.936;2024-02-23T07:25:17;100909.41;;;11.55;66.68
9764;BME280;4921;43.214;27.936;2024-02-23T07:27:44;100923.53;;;11.54;67.63
9764;BME280;4921;43.214;27.936;2024-02-23T07:30:11;100910.69;;;11.85;65.84
9764;BME280;4921;43.214;27.936;2024-02-23T07:32:37;100915.63;;;11.92;66.09
9764;BME280;4921;43.214;27.936;2024-02-23T07:35:03;100909.28;;;11.91;66.39
9764;BME280;4921;43.214;27.936;2024-02-23T07:37:29;100908.13;;;11.92;65.79
9764;BME280;4921;43.214;27.936;2024-02-23T07:39:55;100915.75;;;12.27;65.97
9764;BME280;4921;43.214;27.936;2024-02-23T07:42:20;100905.47;;;12.11;64.88
9764;BME280;4921;43.214;27.936;2024-02-23T07:44:46;100925.34;;;12.33;65.50
9764;BME280;4921;43.214;27.936;2024-02-23T07:47:12;100922.94;;;12.62;64.85
9764;BME280;4921;43.214;27.936;2024-02-23T07:49:37;100920.91;;;12.75;63.58
9764;BME280;4921;43.214;27.936;2024-02-23T07:52:03;100920.72;;;12.68;64.20
9764;BME280;4921;43.214;27.936;2024-02-23T07:54:29;100925.03;;;12.50;64.24
9764;BME280;4921;43.214;27.936;2024-02-23T07:56:55;100923.03;;;12.66;64.10
9764;BME280;4921;43.214;27.936;2024-02-23T07:59:22;100916.09;;;13.22;63.07
9764;BME280;4921;43.214;27.936;2024-02-23T08:01:48;100911.41;;;13.42;62.29
9764;BME280;4921;43.214;27.936;2024-02-23T08:04:13;100914.09;;;13.38;62.07
9764;BME280;4921;43.214;27.936;2024-02-23T08:06:39;100916.63;;;13.27;61.71
9764;BME280;4921;43.214;27.936;2024-02-23T08:09:05;100914.63;;;13.44;61.43
9764;BME280;4921;43.214;27.936;2024-02-23T08:11:30;100911.69;;;13.94;60.06
9764;BME280;4921;43.214;27.936;2024-02-23T08:13:56;100901.13;;;14.22;59.85
9764;BME280;4921;43.214;27.936;2024-02-23T08:16:21;100912.38;;;14.29;58.98
9764;BME280;4921;43.214;27.936;2024-02-23T08:18:47;100892.81;;;14.41;58.77
9764;BME280;4921;43.214;27.936;2024-02-23T08:21:12;100906.41;;;14.50;57.52
9764;BME280;4921;43.214;27.936;2024-02-23T08:23:38;100904.66;;;14.87;57.59
9764;BME280;4921;43.214;27.936;2024-02-23T08:26:04;100897.69;;;15.00;57.52
9764;BME280;4921;43.214;27.936;2024-02-23T08:28:29;100917.50;;;14.50;56.89
9764;BME280;4921;43.214;27.936;2024-02-23T08:30:55;100902.13;;;14.78;56.29
9764;BME280;4921;43.214;27.936;2024-02-23T08:33:20;100912.00;;;15.02;56.24
9764;BME280;4921;43.214;27.936;2024-02-23T08:35:46;100915.00;;;15.45;55.63
9764;BME280;4921;43.214;27.936;2024-02-23T08:38:13;100902.72;;;15.46;54.66
9764;BME280;4921;43.214;27.936;2024-02-23T08:40:39;100912.78;;;15.28;54.66
9764;BME280;4921;43.214;27.936;2024-02-23T08:43:05;100906.66;;;15.16;55.04
9764;BME280;4921;43.214;27.936;2024-02-23T08:45:31;100926.50;;;14.92;55.50
9764;BME280;4921;43.214;27.936;2024-02-23T08:47:56;100910.13;;;14.83;55.70
9764;BME280;4921;43.214;27.936;2024-02-23T08:50:22;100930.22;;;14.31;57.66
9764;BME280;4921;43.214;27.936;2024-02-23T08:52:48;100930.28;;;14.58;58.02
9764;BME280;4921;43.214;27.936;2024-02-23T08:55:13;100925.22;;;14.86;57.15
9764;BME280;4921;43.214;27.936;2024-02-23T08:57:39;100924.97;;;15.24;55.81
9764;BME280;4921;43.214;27.936;2024-02-23T09:00:05;100926.13;;;15.19;55.17
9764;BME280;4921;43.214;27.936;2024-02-23T09:02:31;100918.84;;;15.37;54.65
9764;BME280;4921;43.214;27.936;2024-02-23T09:04:58;100918.25;;;15.51;54.32
9764;BME280;4921;43.214;27.936;2024-02-23T09:07:23;100917.34;;;15.73;54.50
9764;BME280;4921;43.214;27.936;2024-02-23T09:09:49;100931.06;;;15.92;53.73
9764;BME280;4921;43.214;27.936;2024-02-23T09:12:15;100924.94;;;15.76;54.04
9764;BME280;4921;43.214;27.936;2024-02-23T09:14:45;100927.22;;;16.04;54.10
9764;BME280;4921;43.214;27.936;2024-02-23T09:17:11;100933.25;;;16.09;52.22
9764;BME280;4921;43.214;27.936;2024-02-23T09:19:38;100936.16;;;16.20;52.46
9764;BME280;4921;43.214;27.936;2024-02-23T09:22:04;100926.91;;;16.12;52.37
9764;BME280;4921;43.214;27.936;2024-02-23T09:24:29;100928.34;;;16.32;51.90
9764;BME280;4921;43.214;27.936;2024-02-23T09:26:55;100933.25;;;16.09;52.12
9764;BME280;4921;43.214;27.936;2024-02-23T09:29:21;100913.97;;;16.27;52.02
9764;BME280;4921;43.214;27.936;2024-02-23T09:31:49;100912.50;;;16.40;52.11
9764;BME280;4921;43.214;27.936;2024-02-23T09:34:14;100907.47;;;16.49;51.64
9764;BME280;4921;43.214;27.936;2024-02-23T09:36:40;100906.94;;;16.84;51.42
9764;BME280;4921;43.214;27.936;2024-02-23T09:39:06;100899.38;;;16.81;50.95
9764;BME280;4921;43.214;27.936;2024-02-23T09:41:32;100911.00;;;16.46;51.00
9764;BME280;4921;43.214;27.936;2024-02-23T09:44:01;100891.50;;;16.90;50.68
9764;BME280;4921;43.214;27.936;2024-02-23T09:46:27;100888.69;;;16.86;50.67
9764;BME280;4921;43.214;27.936;2024-02-23T09:48:53;100895.28;;;17.18;50.58
9764;BME280;4921;43.214;27.936;2024-02-23T09:51:20;100871.72;;;16.47;51.61
9764;BME280;4921;43.214;27.936;2024-02-23T09:53:49;100892.25;;;16.80;50.94
9764;BME280;4921;43.214;27.936;2024-02-23T09:56:15;100891.28;;;17.19;50.73
9764;BME280;4921;43.214;27.936;2024-02-23T09:58:43;100869.84;;;17.23;49.67
9764;BME280;4921;43.214;27.936;2024-02-23T10:01:10;100892.16;;;17.30;50.29
9764;BME280;4921;43.214;27.936;2024-02-23T10:03:37;100885.69;;;17.12;49.64
9764;BME280;4921;43.214;27.936;2024-02-23T10:06:04;100885.81;;;17.33;49.72
9764;BME280;4921;43.214;27.936;2024-02-23T10:08:30;100887.91;;;17.54;48.38
9764;BME280;4921;43.214;27.936;2024-02-23T10:10:56;100884.38;;;17.57;49.43
9764;BME280;4921;43.214;27.936;2024-02-23T10:13:22;100876.47;;;17.84;47.10
9764;BME280;4921;43.214;27.936;2024-02-23T10:15:52;100866.53;;;17.79;47.12
9764;BME280;4921;43.214;27.936;2024-02-23T10:18:39;100881.56;;;17.50;47.83
9764;BME280;4921;43.214;27.936;2024-02-23T10:21:05;100878.47;;;17.76;47.31
9764;BME280;4921;43.214;27.936;2024-02-23T10:23:31;100885.56;;;17.59;45.86
9764;BME280;4921;43.214;27.936;2024-02-23T10:25:56;100876.28;;;17.38;47.39
9764;BME280;4921;43.214;27.936;2024-02-23T10:28:22;100883.13;;;17.47;47.70
9764;BME280;4921;43.214;27.936;2024-02-23T10:30:48;100875.66;;;17.65;47.27
9764;BME280;4921;43.214;27.936;2024-02-23T10:33:14;100877.91;;;16.78;50.09
9764;BME280;4921;43.214;27.936;2024-02-23T10:35:42;100858.25;;;16.49;50.36
9764;BME280;4921;43.214;27.936;2024-02-23T10:38:09;100852.28;;;17.09;49.41
9764;BME280;4921;43.214;27.936;2024-02-23T10:40:38;100858.91;;;17.55;49.73
9764;BME280;4921;43.214;27.936;2024-02-23T10:43:11;100860.56;;;17.77;47.83
9764;BME280;4921;43.214;27.936;2024-02-23T10:45:37;100855.84;;;18.02;48.06
9764;BME280;4921;43.214;27.936;2024-02-23T10:48:07;100864.91;;;17.60;47.50
9764;BME280;4921;43.214;27.936;2024-02-23T10:50:35;100855.03;;;18.02;48.62
9764;BME280;4921;43.214;27.936;2024-02-23T10:53:01;100857.34;;;17.75;47.46
9764;BME280;4921;43.214;27.936;2024-02-23T10:55:29;100863.25;;;17.49;49.06
9764;BME280;4921;43.214;27.936;2024-02-23T10:57:58;100852.22;;;17.81;47.13
9764;BME280;4921;43.214;27.936;2024-02-23T11:00:24;100858.00;;;17.37;47.28
9764;BME280;4921;43.214;27.936;2024-02-23T11:02:52;100854.50;;;17.50;47.96
9764;BME280;4921;43.214;27.936;2024-02-23T11:05:18;100853.78;;;16.89;49.60
9764;BME280;4921;43.214;27.936;2024-02-23T11:07:47;100854.53;;;16.38;50.07
9764;BME280;4921;43.214;27.936;2024-02-23T11:10:17;100846.16;;;16.35;50.20
9764;BME280;4921;43.214;27.936;2024-02-23T11:12:44;100847.78;;;16.36;50.69
9764;BME280;4921;43.214;27.936;2024-02-23T11:15:26;100848.72;;;15.70;52.17
9764;BME280;4921;43.214;27.936;2024-02-23T11:17:52;100847.47;;;16.01;52.12
9764;BME280;4921;43.214;27.936;2024-02-23T11:20:17;100856.66;;;15.72;52.66
9764;BME280;4921;43.214;27.936;2024-02-23T11:22:43;100853.78;;;14.76;55.95
9764;BME280;4921;43.214;27.936;2024-02-23T11:25:09;100857.81;;;15.08;54.60
9764;BME280;4921;43.214;27.936;2024-02-23T11:27:36;100852.78;;;14.38;57.21
9764;BME280;4921;43.214;27.936;2024-02-23T11:30:05;100833.75;;;14.14;58.09
9764;BME280;4921;43.214;27.936;2024-02-23T11:32:43;100847.19;;;13.32;60.50
9764;BME280;4921;43.214;27.936;2024-02-23T11:35:13;100839.69;;;13.52;60.21
9764;BME280;4921;43.214;27.936;2024-02-23T11:37:56;100849.47;;;13.27;61.00
9764;BME280;4921;43.214;27.936;2024-02-23T11:40:30;100832.31;;;12.68;63.62
9764;BME280;4921;43.214;27.936;2024-02-23T11:42:56;100840.78;;;12.75;63.75
9764;BME280;4921;43.214;27.936;2024-02-23T11:45:22;100827.34;;;12.58;63.50
9764;BME280;4921;43.214;27.936;2024-02-23T11:47:48;100832.28;;;12.33;64.60
9764;BME280;4921;43.214;27.936;2024-02-23T11:50:14;100829.63;;;12.37;64.52
9764;BME280;4921;43.214;27.936;2024-02-23T11:52:46;100835.25;;;12.24;64.81
9764;BME280;4921;43.214;27.936;2024-02-23T11:55:12;100836.56;;;12.31;65.16
9764;BME280;4921;43.214;27.936;2024-02-23T11:57:38;100824.31;;;12.63;63.22
9764;BME280;4921;43.214;27.936;2024-02-23T12:00:05;100829.09;;;12.31;63.86
9764;BME280;4921;43.214;27.936;2024-02-23T12:02:35;100852.94;;;12.55;64.15
9764;BME280;4921;43.214;27.936;2024-02-23T12:05:01;100849.47;;;12.58;63.97
9764;BME280;4921;43.214;27.936;2024-02-23T12:07:29;100856.28;;;12.79;63.21
9764;BME280;4921;43.214;27.936;2024-02-23T12:09:56;100856.66;;;12.62;63.77
9764;BME280;4921;43.214;27.936;2024-02-23T12:12:22;100851.59;;;12.49;63.87
9764;BME280;4921;43.214;27.936;2024-02-23T12:14:47;100837.72;;;11.98;66.32
9764;BME280;4921;43.214;27.936;2024-02-23T12:17:13;100851.41;;;11.79;66.86
9764;BME280;4921;43.214;27.936;2024-02-23T12:19:40;100826.53;;;11.64;68.76
9764;BME280;4921;43.214;27.936;2024-02-23T12:22:06;100841.06;;;11.76;67.62
9764;BME280;4921;43.214;27.936;2024-02-23T12:24:31;100828.59;;;11.67;67.39
9764;BME280;4921;43.214;27.936;2024-02-23T12:26:57;100812.41;;;11.65;66.70
9764;BME280;4921;43.214;27.936;2024-02-23T12:29:23;100809.06;;;11.87;67.90
9764;BME280;4921;43.214;27.936;2024-02-23T12:31:49;100830.94;;;12.11;67.17
9764;BME280;4921;43.214;27.936;2024-02-23T12:34:15;100827.75;;;12.09;67.20
9764;BME280;4921;43.214;27.936;2024-02-23T12:36:41;100835.22;;;11.93;66.37
9764;BME280;4921;43.214;27.936;2024-02-23T12:39:07;100806.81;;;11.77;67.77
9764;BME280;4921;43.214;27.936;2024-02-23T12:41:33;100807.72;;;11.81;67.35
9764;BME280;4921;43.214;27.936;2024-02-23T12:43:59;100821.66;;;11.45;69.77
9764;BME280;4921;43.214;27.936;2024-02-23T12:46:24;100829.63;;;11.62;68.58
9764;BME280;4921;43.214;27.936;2024-02-23T12:48:51;100831.84;;;12.00;66.97
9764;BME280;4921;43.214;27.936;2024-02-23T12:51:16;100828.28;;;12.15;66.61
9764;BME280;4921;43.214;27.936;2024-02-23T12:53:43;100811.63;;;12.11;67.26
9764;BME280;4921;43.214;27.936;2024-02-23T12:56:13;100816.53;;;12.34;65.57
9764;BME280;4921;43.214;27.936;2024-02-23T12:58:40;100834.94;;;12.45;65.06
9764;BME280;4921;43.214;27.936;2024-02-23T13:01:07;100836.56;;;12.31;65.35